Time;durP1;ratioP1;P1;durP2;ratioP2;P2;SDS_P1;SDS_P2;PMS_P1;PMS_P2;Temp;Humidity;BMP_temperature;BMP_pressure;BME280_temperature;BME280_humidity;BME280_pressure;Samples;Min_cycle;Max_cycle;Signal;HPM_P1;HPM_P2
2022/05/18 00:01:26;;;;;;;1.50;1.00;;;5.20;1.00;;;4.87;86.29;99465.47;5100137;27;119473;-73
2022/05/18 00:03:55;;;;;;;2.65;1.20;;;5.20;1.00;;;4.99;85.71;99474.03;5084360;27;129303;-71
2022/05/18 00:06:25;;;;;;;2.42;1.17;;;5.20;1.00;;;4.87;86.04;99470.84;5084166;27;128835;-77
2022/05/18 00:08:54;;;;;;;2.33;1.30;;;5.20;1.00;;;4.91;85.48;99466.53;5100081;27;120278;-71
2022/05/18 00:11:23;;;;;;;2.53;1.30;;;5.30;1.00;;;5.03;84.77;99469.72;5100391;27;119456;-71
2022/05/18 00:13:55;;;;;;;2.72;1.17;;;5.30;1.00;;;5.11;84.90;99475.59;5099471;27;130358;-75
2022/05/18 00:16:26;;;;;;;1.65;1.15;;;5.30;1.00;;;5.10;85.12;99474.00;5084227;27;129966;-73
2022/05/18 00:18:55;;;;;;;1.85;1.17;;;5.30;1.00;;;5.17;84.53;99475.31;5098839;27;122908;-72
2022/05/18 00:21:26;;;;;;;1.85;1.20;;;5.30;1.00;;;5.14;84.69;99486.63;5084431;27;122038;-72
2022/05/18 00:23:55;;;;;;;4.10;1.40;;;5.30;1.00;;;5.16;84.84;99483.66;5099561;27;129756;-74
2022/05/18 00:26:24;;;;;;;1.33;1.10;;;5.30;1.00;;;5.06;85.10;99483.69;5099340;27;129593;-76
2022/05/18 00:28:53;;;;;;;5.05;1.40;;;5.30;1.00;;;5.09;85.30;99477.75;5084404;27;119235;-74
2022/05/18 00:31:22;;;;;;;3.35;1.20;;;5.30;1.00;;;5.17;85.22;99475.31;5099827;27;119069;-76
2022/05/18 00:33:51;;;;;;;2.50;1.20;;;5.30;1.00;;;5.22;85.03;99488.75;5099415;27;130211;-72
2022/05/18 00:36:19;;;;;;;4.15;1.40;;;5.30;1.00;;;5.08;86.37;99486.91;5083955;27;128369;-72
2022/05/18 00:38:49;;;;;;;1.88;1.33;;;5.30;1.00;;;5.02;86.86;99489.63;5099513;27;120009;-75
2022/05/18 00:41:19;;;;;;;2.40;1.25;;;5.20;1.00;;;4.98;87.62;99493.94;5099601;27;120049;-74
2022/05/18 00:43:52;;;;;;;2.40;1.27;;;5.20;1.00;;;4.99;86.94;99500.94;5098327;27;131194;-75
2022/05/18 00:46:21;;;;;;;4.80;1.55;;;5.20;1.00;;;5.04;87.42;99492.84;5099486;27;129594;-77
2022/05/18 00:48:50;;;;;;;2.45;1.30;;;5.20;1.00;;;4.98;87.52;99485.88;5080949;27;120457;-74
2022/05/18 00:51:25;;;;;;;2.35;1.38;;;5.20;1.00;;;5.00;87.92;99499.88;5100048;27;119268;-77
2022/05/18 00:54:07;;;;;;;2.25;1.35;;;5.20;1.00;;;5.03;87.92;99501.19;5080403;27;129901;-73
2022/05/18 00:56:42;;;;;;;2.75;1.35;;;5.20;1.00;;;5.03;87.60;99504.69;5099134;27;130336;-75
2022/05/18 00:59:17;;;;;;;2.80;1.48;;;5.20;1.00;;;5.03;87.79;99496.63;5080782;27;119601;-73
2022/05/18 01:01:47;;;;;;;3.95;1.70;;;5.20;1.00;;;4.96;87.96;99506.84;5099613;27;119863;-72
2022/05/18 01:04:17;;;;;;;2.67;1.20;;;5.20;1.00;;;5.03;87.97;99506.56;5098816;27;129957;-75
2022/05/18 01:06:52;;;;;;;1.25;1.10;;;5.20;1.00;;;5.01;88.26;99498.75;5066796;27;128915;-73
2022/05/18 01:09:30;;;;;;;2.72;1.30;;;5.20;1.00;;;5.06;87.44;99505.22;5097841;27;122708;-76
2022/05/18 01:11:58;;;;;;;3.65;1.30;;;5.20;1.00;;;4.99;87.97;99506.31;5085714;27;120519;-77
2022/05/18 01:14:31;;;;;;;3.53;1.50;;;5.10;1.00;;;4.99;88.15;99508.22;5087140;27;128829;-71
2022/05/18 01:17:00;;;;;;;4.43;1.50;;;5.10;1.00;;;4.86;87.78;99509.56;5102734;27;129545;-73
2022/05/18 01:19:38;;;;;;;3.30;1.23;;;5.10;1.00;;;4.72;88.87;99513.91;5103222;27;120132;-76
2022/05/18 01:22:18;;;;;;;1.80;1.17;;;5.10;1.00;;;4.85;88.35;99521.41;5083963;27;119328;-78
2022/05/18 01:24:57;;;;;;;1.95;1.20;;;5.10;1.00;;;4.92;88.36;99519.22;5102558;27;130445;-76
2022/05/18 01:27:27;;;;;;;3.00;1.25;;;5.10;1.00;;;4.97;87.74;99523.78;5102761;27;130893;-73
2022/05/18 01:29:57;;;;;;;2.08;1.27;;;5.10;1.00;;;4.92;87.76;99521.91;5084377;27;119627;-76
2022/05/18 01:32:26;;;;;;;2.13;1.30;;;5.10;1.00;;;4.89;88.25;99518.97;5069976;27;119199;-76
2022/05/18 01:34:54;;;;;;;4.05;1.67;;;5.10;1.00;;;4.83;89.09;99520.88;5101489;27;130726;-75
2022/05/18 01:37:23;;;;;;;2.00;1.30;;;5.10;1.00;;;4.96;88.93;99520.31;5104975;27;129985;-76
2022/05/18 01:39:58;;;;;;;2.75;1.38;;;5.10;1.00;;;4.97;88.72;99530.00;5084277;27;119812;-77
2022/05/18 01:42:32;;;;;;;3.25;1.35;;;5.10;1.00;;;4.90;89.65;99540.22;5102692;27;119716;-76
2022/05/18 01:45:01;;;;;;;4.28;2.08;;;5.10;1.00;;;4.68;91.19;99544.03;5102798;27;130461;-73
2022/05/18 01:47:34;;;;;;;2.65;1.25;;;5.10;1.00;;;4.77;92.24;99535.41;5069713;27;129328;-76
2022/05/18 01:50:07;;;;;;;3.38;1.33;;;5.00;1.00;;;4.64;92.42;99553.72;5070468;27;118751;-76
2022/05/18 01:52:36;;;;;;;2.85;1.48;;;5.00;1.00;;;4.73;93.10;99537.03;5102764;27;121383;-75
2022/05/18 01:55:07;;;;;;;3.40;1.50;;;5.10;1.00;;;4.76;93.14;99547.25;5101920;27;129810;-71
2022/05/18 01:57:38;;;;;;;2.25;1.60;;;5.00;1.00;;;4.72;94.15;99554.25;5101843;27;130667;-77
2022/05/18 02:00:09;;;;;;;1.80;1.40;;;5.00;1.00;;;4.73;94.67;99550.47;5101226;27;122417;-78
2022/05/18 02:02:43;;;;;;;2.80;1.52;;;5.00;1.00;;;4.74;94.79;99552.91;5086351;27;123527;-74
2022/05/18 02:05:11;;;;;;;2.05;1.17;;;5.00;1.00;;;4.78;94.67;99545.09;5102269;27;130100;-79
2022/05/18 02:07:40;;;;;;;4.45;1.80;;;5.00;1.00;;;4.66;95.69;99543.50;5102408;27;130038;-76
2022/05/18 02:10:10;;;;;;;2.45;1.60;;;4.90;1.00;;;4.71;96.14;99549.97;5101741;27;119748;-75
2022/05/18 02:12:40;;;;;;;3.78;2.00;;;4.90;1.00;;;4.60;96.61;99549.97;5101940;27;119134;-77
2022/05/18 02:15:09;;;;;;;3.63;1.70;;;4.90;1.00;;;4.71;97.09;99549.97;5101677;27;130815;-74
2022/05/18 02:17:38;;;;;;;5.32;1.88;;;5.00;1.00;;;4.86;95.93;99550.72;5086496;27;129946;-74
2022/05/18 02:20:08;;;;;;;3.83;1.73;;;5.00;1.00;;;4.76;96.39;99560.69;5102335;27;120344;-76
2022/05/18 02:22:37;;;;;;;2.65;1.50;;;5.00;1.00;;;4.77;96.62;99552.34;5101526;27;120180;-77
2022/05/18 02:25:07;;;;;;;3.97;1.73;;;5.00;1.00;;;4.66;97.10;99562.31;5100689;27;129928;-74
2022/05/18 02:27:36;;;;;;;5.00;2.00;;;5.00;1.00;;;4.81;97.55;99558.00;5101307;27;129753;-77
2022/05/18 02:30:09;;;;;;;4.97;1.95;;;5.10;1.00;;;4.77;97.04;99556.91;5102286;27;120028;-78
2022/05/18 02:32:37;;;;;;;3.42;1.80;;;5.00;1.00;;;4.78;97.25;99555.84;5101651;27;119608;-75
2022/05/18 02:35:07;;;;;;;4.00;1.80;;;5.00;1.00;;;4.91;96.57;99557.16;5082761;27;130005;-75
2022/05/18 02:37:37;;;;;;;3.58;1.77;;;5.10;1.00;;;4.92;96.49;99559.56;5104783;27;129665;-76
2022/05/18 02:40:08;;;;;;;3.40;1.95;;;5.10;1.00;;;5.01;96.13;99563.31;5083021;27;120212;-78
2022/05/18 02:42:38;;;;;;;3.25;1.77;;;5.10;1.00;;;5.00;96.41;99561.72;5102310;27;119771;-75
2022/05/18 02:45:10;;;;;;;4.40;1.73;;;5.20;1.00;;;5.07;95.17;99563.31;5104297;27;130131;-73
2022/05/18 02:47:39;;;;;;;3.88;1.90;;;5.20;1.00;;;5.15;94.68;99573.53;5101078;27;129882;-76
2022/05/18 02:50:09;;;;;;;4.78;1.70;;;5.20;1.00;;;5.19;94.85;99569.22;5100364;27;123835;-77
2022/05/18 02:52:38;;;;;;;4.05;1.73;;;5.20;1.00;;;5.10;94.96;99570.84;5086431;27;121446;-76
2022/05/18 02:57:55;;;;;;;4.30;1.80;;;5.20;1.00;;;4.99;95.79;99581.63;5101117;27;130007;-73
2022/05/18 03:00:25;;;;;;;3.45;1.80;;;5.20;1.00;;;4.92;96.00;99581.09;5101482;27;120196;-74
2022/05/18 03:02:54;;;;;;;2.97;1.80;;;5.20;1.00;;;4.90;96.86;99588.63;5086771;27;118865;-74
2022/05/18 03:05:22;;;;;;;3.40;1.80;;;5.20;1.00;;;4.93;97.10;99593.47;5100930;27;129887;-76
2022/05/18 03:07:50;;;;;;;3.50;1.80;;;5.20;1.00;;;4.90;97.26;99593.22;5086295;27;129466;-76
2022/05/18 03:10:19;;;;;;;5.97;2.15;;;5.20;1.00;;;5.03;96.99;99589.94;5068686;27;119033;-76
2022/05/18 03:12:47;;;;;;;3.58;2.17;;;5.20;1.00;;;4.90;98.48;99595.91;5086092;27;119566;-77
2022/05/18 03:15:16;;;;;;;4.25;2.25;;;5.20;1.00;;;5.06;97.71;99604.75;5084464;27;131712;-74
2022/05/18 03:17:46;;;;;;;3.78;2.08;;;5.20;1.00;;;4.96;98.60;99598.31;5102029;27;129701;-73
2022/05/18 03:25:43;;;;;;;3.90;1.90;;;5.20;1.00;;;4.94;100.00;99610.41;5086168;27;129920;-75
2022/05/18 03:28:12;;;;;;;4.50;2.25;;;5.20;1.00;;;4.82;100.00;99616.06;5101961;27;129566;-77
2022/05/18 03:30:40;;;;;;;4.90;2.03;;;5.10;1.00;;;4.85;100.00;99618.22;5101880;27;119492;-76
2022/05/18 03:33:10;;;;;;;6.10;2.40;;;5.20;1.00;;;4.96;100.00;99625.19;5101519;27;119390;-75
2022/05/18 03:35:39;;;;;;;5.53;2.10;;;5.20;1.00;;;4.95;100.00;99631.66;5100469;27;130471;-76
2022/05/18 03:38:08;;;;;;;4.20;2.35;;;5.20;1.00;;;4.95;100.00;99628.97;5102528;27;131096;-77
2022/05/18 03:40:37;;;;;;;4.18;2.60;;;5.20;1.00;;;5.02;100.00;99629.50;5085224;27;122214;-77
2022/05/18 03:43:06;;;;;;;4.75;2.60;;;5.30;1.00;;;5.02;100.00;99637.56;5088027;27;121009;-75
2022/05/18 03:45:35;;;;;;;4.43;2.60;;;5.30;1.00;;;5.06;100.00;99639.72;5087042;27;128699;-78
2022/05/18 03:48:06;;;;;;;5.85;2.88;;;5.30;1.00;;;5.26;100.00;99638.88;5082746;27;129696;-76
2022/05/18 03:50:37;;;;;;;4.63;2.47;;;5.40;1.00;;;5.16;100.00;99642.41;5101706;27;120589;-77
2022/05/18 03:53:07;;;;;;;3.60;2.28;;;5.40;1.00;;;5.21;100.00;99637.81;5086466;27;118411;-79
2022/05/18 03:55:37;;;;;;;4.97;2.47;;;5.40;1.00;;;5.42;99.60;99653.09;5100277;27;130745;-77
2022/05/18 03:58:06;;;;;;;3.47;2.05;;;5.40;1.00;;;5.43;98.87;99641.25;5085940;27;128351;-79
2022/05/18 04:00:35;;;;;;;4.82;2.20;;;5.40;1.00;;;5.33;98.86;99653.66;5100913;27;119789;-77
2022/05/18 04:03:04;;;;;;;5.35;2.35;;;5.40;1.00;;;5.56;98.49;99651.44;5082512;27;119315;-78
2022/05/18 04:05:32;;;;;;;6.35;2.60;;;5.50;1.00;;;5.49;98.13;99659.00;5084086;27;131042;-78
2022/05/18 04:08:03;;;;;;;11.25;2.97;;;5.50;1.00;;;5.51;97.82;99660.31;5082867;27;129683;-73
2022/05/18 04:10:31;;;;;;;6.53;2.60;;;5.60;1.00;;;5.48;98.49;99657.38;5100326;27;119703;-77
2022/05/18 04:13:00;;;;;;;4.82;2.88;;;5.60;1.00;;;5.50;98.34;99669.50;5085036;27;118334;-77
2022/05/18 04:15:30;;;;;;;5.10;2.40;;;5.60;1.00;;;5.58;98.19;99676.22;5099842;27;130278;-76
2022/05/18 04:17:59;;;;;;;4.32;2.53;;;5.70;1.00;;;5.68;97.69;99678.06;5099781;27;130317;-77
2022/05/18 04:20:27;;;;;;;6.10;2.47;;;5.70;1.00;;;5.83;96.92;99679.88;5100636;27;119483;-75
2022/05/18 04:22:56;;;;;;;3.72;2.28;;;5.80;1.00;;;5.83;96.63;99682.56;5101016;27;120052;-80
2022/05/18 04:25:29;;;;;;;5.82;2.72;;;5.80;1.00;;;6.00;95.72;99683.09;5083680;27;130062;-75
2022/05/18 04:27:57;;;;;;;4.32;2.70;;;5.90;1.00;;;6.05;95.40;99693.84;5099886;27;130250;-74
2022/05/18 04:30:27;;;;;;;4.82;2.70;;;6.00;1.00;;;6.04;95.52;99692.22;5099110;27;122121;-78
2022/05/18 04:32:58;;;;;;;5.95;2.70;;;6.10;1.00;;;6.18;94.90;99688.94;5100532;27;122843;-75
2022/05/18 04:35:29;;;;;;;5.45;2.42;;;6.10;1.00;;;6.20;94.25;99694.84;5099329;27;129804;-74
2022/05/18 04:37:58;;;;;;;6.00;3.10;;;6.20;1.00;;;6.24;94.45;99685.91;5100164;27;129729;-76
2022/05/18 04:40:29;;;;;;;7.25;3.92;;;6.30;1.00;;;6.16;94.75;99697.28;5099943;27;119660;-75
2022/05/18 04:42:57;;;;;;;6.80;3.47;;;6.30;1.00;;;6.23;94.62;99694.28;5084552;27;118860;-78
2022/05/18 04:45:26;;;;;;;5.75;2.70;;;6.30;1.00;;;6.29;94.15;99701.25;5061518;27;129024;-77
2022/05/18 04:47:54;;;;;;;14.48;6.60;;;6.40;1.00;;;6.45;93.37;99692.00;5081513;27;129480;-78
2022/05/18 04:50:23;;;;;;;8.35;4.38;;;6.40;1.00;;;6.46;92.71;99693.59;5082647;27;120820;-77
2022/05/18 04:52:51;;;;;;;4.85;2.97;;;6.50;1.00;;;6.35;93.18;99710.94;5049813;27;118632;-73
2022/05/18 04:55:20;;;;;;;7.70;3.22;;;6.40;1.00;;;6.41;93.59;99701.72;5080742;27;129978;-78
2022/05/18 04:57:50;;;;;;;9.20;4.72;;;6.50;1.00;;;6.54;92.76;99703.00;5083285;27;129518;-79
2022/05/18 05:00:21;;;;;;;6.28;2.95;;;6.60;1.00;;;6.60;91.98;99703.78;5083789;27;120151;-76
2022/05/18 05:02:55;;;;;;;5.72;3.13;;;6.60;1.00;;;6.61;91.87;99708.09;5077746;27;119876;-76
2022/05/18 05:05:25;;;;;;;7.18;4.10;;;6.60;1.00;;;6.70;91.80;99714.50;5066834;27;129577;-76
2022/05/18 05:07:53;;;;;;;5.28;3.10;;;6.70;1.00;;;6.58;91.84;99714.84;5082856;27;129232;-76
2022/05/18 05:10:22;;;;;;;6.40;3.20;;;6.70;1.00;;;6.56;91.82;99718.91;5068492;27;119425;-76
2022/05/18 05:12:52;;;;;;;5.43;3.35;;;6.70;1.00;;;6.68;91.76;99732.84;5084500;27;118685;-77
2022/05/18 05:15:21;;;;;;;5.15;3.03;;;6.80;1.00;;;6.69;91.18;99729.06;5082588;27;130895;-77
2022/05/18 05:17:51;;;;;;;6.20;3.50;;;6.80;1.00;;;6.80;91.11;99729.81;5082888;27;129900;-76
2022/05/18 05:20:19;;;;;;;4.88;3.15;;;6.90;1.00;;;6.91;89.92;99725.16;5083499;27;122518;-75
2022/05/18 05:22:48;;;;;;;6.63;4.07;;;6.90;1.00;;;7.05;89.36;99736.91;5084023;27;122149;-75
2022/05/18 05:25:17;;;;;;;5.40;3.00;;;7.00;1.00;;;7.00;89.35;99731.56;5068021;27;129745;-77
2022/05/18 05:27:46;;;;;;;5.15;3.17;;;7.00;1.00;;;6.94;89.56;99738.09;5083786;27;129325;-77
2022/05/18 05:30:16;;;;;;;6.32;3.40;;;7.00;1.00;;;6.91;88.99;99746.75;5084237;27;120357;-76
2022/05/18 05:32:45;;;;;;;6.57;3.00;;;7.00;1.00;;;6.88;89.07;99736.50;5064928;27;120098;-77
2022/05/18 05:35:14;;;;;;;5.63;3.10;;;7.00;1.00;;;6.91;89.11;99738.63;5083403;27;129025;-77
2022/05/18 05:37:42;;;;;;;4.15;2.67;;;7.00;1.00;;;6.99;88.87;99746.13;5061356;27;129956;-77
2022/05/18 05:40:11;;;;;;;5.72;3.00;;;7.10;1.00;;;6.92;88.78;99751.84;5047948;27;118795;-76
2022/05/18 05:42:41;;;;;;;5.07;3.25;;;7.00;1.00;;;7.04;88.31;99750.69;5063242;27;119473;-78
2022/05/18 05:45:10;;;;;;;6.10;3.22;;;7.10;1.00;;;6.98;87.98;99763.41;5046486;27;129694;-78
2022/05/18 05:47:41;;;;;;;5.07;3.35;;;7.10;1.00;;;7.04;88.32;99756.88;5062028;27;130037;-77
2022/05/18 05:50:10;;;;;;;4.57;2.78;;;7.10;1.00;;;6.97;87.97;99761.81;5046879;27;119633;-77
2022/05/18 05:52:39;;;;;;;5.07;3.40;;;7.10;1.00;;;7.01;87.50;99762.84;5046963;27;118371;-75
2022/05/18 05:55:08;;;;;;;5.20;3.22;;;7.10;1.00;;;7.22;87.46;99770.81;5046273;27;129919;-75
2022/05/18 05:57:37;;;;;;;5.57;3.50;;;7.30;1.00;;;7.26;86.71;99774.53;5060286;27;129453;-74
2022/05/18 06:00:08;;;;;;;4.45;2.92;;;7.30;1.00;;;7.31;85.65;99771.81;5058521;27;120318;-72
2022/05/18 06:02:42;;;;;;;5.93;3.20;;;7.30;1.00;;;7.34;85.21;99772.03;5061638;27;119593;-73
2022/05/18 06:05:10;;;;;;;5.63;3.35;;;7.30;1.00;;;7.24;85.36;99782.09;5060243;27;129386;-74
2022/05/18 06:07:39;;;;;;;4.20;2.90;;;7.30;1.00;;;7.36;85.00;99785.25;5059507;27;129347;-78
2022/05/18 06:10:09;;;;;;;4.82;2.90;;;7.40;1.00;;;7.28;85.58;99788.56;5044412;27;121589;-76
2022/05/18 06:12:38;;;;;;;4.93;3.38;;;7.30;1.00;;;7.21;85.89;99788.88;5042476;27;121751;-74
2022/05/18 06:15:08;;;;;;;5.05;3.30;;;7.30;1.00;;;7.23;86.54;99794.81;5041386;27;128690;-77
2022/05/18 06:17:37;;;;;;;5.97;3.03;;;7.30;1.00;;;7.25;86.33;99799.94;5040050;27;129754;-78
2022/05/18 06:20:08;;;;;;;5.95;3.30;;;7.30;1.00;;;7.14;86.29;99799.19;5039882;27;119852;-73
2022/05/18 06:22:37;;;;;;;7.63;3.63;;;7.20;1.00;;;7.17;87.27;99804.03;5040319;27;119453;-73
2022/05/18 06:25:07;;;;;;;5.10;3.25;;;7.30;1.00;;;7.08;86.47;99809.22;5044238;27;128861;-75
2022/05/18 06:27:35;;;;;;;4.93;3.35;;;7.20;1.00;;;7.36;86.16;99806.84;5041820;27;129814;-73
2022/05/18 06:30:04;;;;;;;5.40;3.28;;;7.40;1.00;;;7.34;85.19;99814.44;5060616;27;119735;-73
2022/05/18 06:32:32;;;;;;;6.53;3.67;;;7.30;1.00;;;7.27;85.72;99813.94;5042057;27;119984;-73
2022/05/18 06:35:01;;;;;;;8.77;3.28;;;7.30;1.00;;;7.29;84.76;99811.75;5059073;27;129821;-76
2022/05/18 06:37:31;;;;;;;4.90;3.28;;;7.30;1.00;;;7.34;84.80;99817.13;5081409;27;129592;-74
2022/05/18 06:40:00;;;;;;;4.35;2.95;;;7.30;1.00;;;7.46;83.16;99817.56;5080667;27;120298;-74
2022/05/18 06:42:29;;;;;;;4.70;3.17;;;7.30;1.00;;;7.36;84.13;99823.06;5080863;27;119621;-72
2022/05/18 06:45:03;;;;;;;4.97;2.92;;;7.40;1.00;;;7.40;82.80;99834.88;5077159;27;129954;-71
2022/05/18 06:47:32;;;;;;;7.35;3.50;;;7.40;1.00;;;7.62;83.03;99847.13;5063617;27;129834;-72
2022/05/18 06:50:01;;;;;;;4.90;3.45;;;7.50;1.00;;;7.40;83.51;99834.88;5060023;27;120473;-71
2022/05/18 06:52:31;;;;;;;5.03;2.83;;;7.40;1.00;;;7.61;82.27;99840.16;5060303;27;119669;-75
2022/05/18 06:54:59;;;;;;;4.85;2.88;;;7.50;1.00;;;7.77;81.12;99849.72;5059542;27;129961;-72
2022/05/18 06:57:28;;;;;;;3.90;2.80;;;7.60;1.00;;;7.68;80.71;99852.25;5041297;27;130978;-77
2022/05/18 06:59:57;;;;;;;4.97;3.30;;;7.50;1.00;;;7.78;81.34;99845.94;5059013;27;122505;-73
2022/05/18 07:02:25;;;;;;;5.38;3.53;;;7.60;1.00;;;7.91;80.55;99856.06;5059655;27;122016;-72
2022/05/18 08:55:49;;;;;;;4.03;1.80;;;10.80;99.90;;;12.38;59.11;99917.06;5053872;27;1507021;-74
2022/05/18 08:58:27;;;;;;;3.97;2.00;;;11.20;99.90;;;12.17;58.61;99931.19;5077589;27;114114;-77
2022/05/18 09:01:01;;;;;;;3.35;1.77;;;11.00;99.90;;;11.76;61.08;99925.94;5076771;27;130292;-73
2022/05/18 09:03:36;;;;;;;3.53;1.80;;;10.70;1.00;;;12.27;58.14;99926.59;5076334;27;130236;-71
2022/05/18 09:06:12;;;;;;;5.50;2.33;;;10.80;99.90;;;12.43;58.30;99922.34;5079367;27;118810;-75
2022/05/18 09:10:12;;;;;;;3.42;2.33;;;11.00;99.90;;;11.60;59.78;99925.50;5077722;27;114166;-70
2022/05/18 09:11:38;;;;;;;4.93;2.28;;;10.70;99.90;;;11.57;59.09;99926.13;5078329;27;129784;-77
2022/05/18 09:14:10;;;;;;;4.18;2.17;;;10.40;99.90;;;11.86;58.92;99929.22;5077011;27;130204;-77
2022/05/18 09:16:44;;;;;;;5.38;2.80;;;10.80;99.90;;;12.12;57.65;99922.34;5077006;27;119616;-73
2022/05/18 09:19:23;;;;;;;4.60;3.60;;;10.90;99.90;;;12.16;57.93;99926.06;5077142;27;114377;-71
2022/05/18 09:22:03;;;;;;;5.05;2.78;;;11.10;99.90;;;11.77;57.22;99933.78;5076449;27;130006;-75
2022/05/18 09:24:46;;;;;;;4.05;2.55;;;10.70;99.90;;;11.87;57.21;99938.97;5074945;27;129964;-70
2022/05/18 09:27:50;;;;;;;3.90;2.58;;;10.80;99.90;;;12.05;57.35;99922.81;5079004;27;118480;-73
2022/05/18 09:30:27;;;;;;;4.78;2.10;;;10.90;99.90;;;12.08;56.99;99922.19;5076945;27;113893;-78
2022/05/18 09:33:12;;;;;;;4.07;2.40;;;10.90;99.90;;;12.39;57.15;99935.78;5076635;27;129968;-75
2022/05/18 09:36:05;;;;;;;4.10;2.60;;;10.90;99.90;;;12.47;56.48;99939.66;5076456;27;129819;-72
2022/05/18 09:38:38;;;;;;;7.35;2.20;;;11.10;99.90;;;12.31;56.72;99939.28;5075477;27;118854;-77
2022/05/18 09:41:11;;;;;;;4.90;3.20;;;11.00;99.90;;;12.79;56.73;99945.88;5077072;27;114825;-76
2022/05/18 09:43:49;;;;;;;4.93;2.42;;;11.30;99.90;;;12.95;55.24;99938.88;5076293;27;129971;-80
2022/05/18 09:46:23;;;;;;;4.03;2.60;;;11.30;99.90;;;12.12;56.86;99950.34;5075029;27;129611;-75
2022/05/18 09:48:57;;;;;;;3.45;2.30;;;10.80;99.90;;;12.32;56.61;99943.59;5076898;27;118522;-77
2022/05/18 09:51:26;;;;;;;4.60;2.45;;;11.20;99.90;;;13.29;53.97;99948.25;5074887;27;113697;-72
2022/05/18 09:53:59;;;;;;;4.38;2.38;;;11.60;99.90;;;13.53;51.88;99951.69;5076343;27;130303;-78
2022/05/18 09:56:33;;;;;;;3.42;2.20;;;11.70;99.90;;;12.94;53.15;99950.88;5063251;27;130163;-75
2022/05/18 09:59:12;;;;;;;6.60;4.32;;;11.20;99.90;;;12.36;56.39;99949.22;5064600;27;119095;-73
2022/05/18 10:07:32;;;;;;;3.60;2.22;;;11.50;99.90;;;12.15;55.85;99955.16;5062294;27;130085;-73
2022/05/18 10:10:13;;;;;;;5.72;2.95;;;11.20;99.90;;;12.06;57.06;99957.06;5062535;27;119128;-72
2022/05/18 10:12:47;;;;;;;9.20;3.92;;;11.30;99.90;;;12.17;56.27;99958.41;5062808;27;114397;-74
2022/05/18 10:15:35;;;;;;;4.22;2.80;;;10.90;99.90;;;12.00;56.36;99961.03;5062304;27;130486;-73
2022/05/18 10:18:20;;;;;;;4.05;2.42;;;10.90;99.90;;;12.34;56.48;99946.00;5062574;27;129581;-74
2022/05/18 10:21:07;;;;;;;4.57;3.13;;;11.40;99.90;;;13.00;54.54;99956.22;5062498;27;118762;-80
2022/05/18 10:23:42;;;;;;;4.50;2.92;;;11.90;99.90;;;13.09;53.21;99952.38;5062654;27;113742;-73
2022/05/18 10:26:22;;;;;;;6.63;4.22;;;11.70;99.90;;;12.45;53.80;99958.25;5062039;27;130069;-73
2022/05/18 10:28:59;;;;;;;4.95;2.55;;;11.10;99.90;;;11.99;56.25;99964.84;5064007;27;128823;-72
2022/05/18 10:31:35;;;;;;;5.75;3.30;;;11.00;99.90;;;12.19;56.40;99960.81;5062099;27;119413;-73
2022/05/18 10:34:25;;;;;;;5.88;3.05;;;11.20;99.90;;;11.80;56.77;99960.34;5051480;27;114412;-77
2022/05/18 10:36:56;;;;;;;4.03;2.60;;;10.70;99.90;;;12.03;56.79;99953.03;5043125;27;129616;-77
2022/05/18 10:39:38;;;;;;;5.05;2.65;;;11.00;99.90;;;11.74;56.86;99956.16;5041095;27;129498;-72
2022/05/18 10:42:20;;;;;;;5.20;3.00;;;10.90;99.90;;;12.65;56.32;99939.75;5041489;27;119480;-75
2022/05/18 10:44:49;;;;;;;4.75;2.35;;;11.30;99.90;;;12.64;54.66;99954.50;5041670;27;113581;-74
2022/05/18 10:47:31;;;;;;;5.10;2.45;;;11.50;99.90;;;12.45;55.65;99939.19;5040992;27;130475;-78
2022/05/18 10:50:29;;;;;;;5.55;3.28;;;11.50;99.90;;;12.74;54.69;99948.75;5041044;27;129726;-72
2022/05/18 10:53:00;;;;;;;5.80;2.90;;;11.90;99.90;;;12.49;54.48;99936.63;5041706;27;119004;-72
2022/05/18 10:55:32;;;;;;;4.45;2.45;;;11.70;99.90;;;12.71;54.87;99916.69;5043781;27;113886;-78
2022/05/18 10:58:05;;;;;;;3.85;2.70;;;12.00;99.90;;;12.42;54.23;99923.47;5040594;27;130914;-72
2022/05/18 11:00:47;;;;;;;4.50;2.20;;;11.70;99.90;;;11.98;54.74;99925.16;5042931;27;129224;-72
2022/05/18 11:03:28;;;;;;;4.03;2.50;;;11.40;99.90;;;12.46;55.33;99927.16;5040872;27;118906;-78
2022/05/18 11:06:05;;;;;;;3.63;1.85;;;12.00;99.90;;;12.80;53.50;99914.81;5042885;27;112913;-70
2022/05/18 11:08:34;;;;;;;5.55;2.35;;;12.20;99.90;;;13.35;53.46;99916.19;5038806;27;129657;-73
2022/05/18 11:11:16;;;;;;;5.05;2.30;;;12.90;99.90;;;13.24;52.09;99929.31;5040989;27;130196;-75
2022/05/18 11:13:52;;;;;;;7.53;4.88;;;12.50;99.90;;;12.95;52.61;99921.75;5042913;27;117981;-70
2022/05/18 11:16:38;;;;;;;4.00;2.85;;;12.30;99.90;;;13.21;52.98;99929.94;5041405;27;113767;-72
2022/05/18 11:19:31;;;;;;;4.57;2.20;;;12.50;99.90;;;13.52;51.60;99911.91;5040628;27;130014;-75
2022/05/18 11:22:22;;;;;;;4.72;2.40;;;12.80;99.90;;;13.58;51.00;99911.41;5040341;27;130609;-77
2022/05/18 11:25:10;;;;;;;3.60;1.98;;;12.80;99.90;;;14.37;47.44;99906.59;5040914;27;118718;-77
2022/05/18 11:27:49;;;;;;;4.05;2.17;;;13.30;99.90;;;14.38;47.99;99905.47;5040977;27;113903;-75
2022/05/18 11:30:23;;;;;;;3.20;2.05;;;13.10;99.90;;;14.64;48.95;99904.56;5042413;27;129463;-73
2022/05/18 11:33:04;;;;;;;2.95;2.10;;;13.30;99.90;;;14.85;49.16;99901.09;5041342;27;130258;-78
2022/05/18 11:35:52;;;;;;;2.67;1.88;;;13.60;99.90;;;14.95;48.44;99895.25;5042949;27;118398;-78
2022/05/18 11:38:47;;;;;;;2.40;1.85;;;13.80;99.90;;;15.45;46.97;99896.34;5040980;27;113715;-77
2022/05/18 11:41:37;;;;;;;2.92;1.80;;;14.30;99.90;;;14.85;46.98;99895.63;5040293;27;129917;-72
2022/05/18 11:44:10;;;;;;;3.72;1.70;;;13.80;99.90;;;14.00;49.14;99903.47;5040747;27;130627;-73
2022/05/18 11:47:23;;;;;;;4.00;1.80;;;13.20;99.90;;;13.88;50.24;99892.44;5042306;27;117564;-74
2022/05/18 11:50:03;;;;;;;3.00;2.17;;;13.40;99.90;;;14.22;47.13;99901.66;5039749;27;113329;-77
2022/05/18 11:52:58;;;;;;;3.67;1.77;;;13.70;99.90;;;14.23;47.22;99889.63;5039772;27;129870;-75
2022/05/18 11:55:50;;;;;;;3.42;1.98;;;13.70;99.90;;;14.36;46.72;99891.31;5041560;27;128900;-73
2022/05/18 11:58:43;;;;;;;4.40;2.30;;;13.70;99.90;;;14.40;46.67;99896.97;5040406;27;119185;-73
2022/05/18 12:01:23;;;;;;;3.42;1.80;;;13.80;99.90;;;14.49;47.12;99894.16;5042259;27;113023;-75
2022/05/18 12:04:27;;;;;;;4.18;2.17;;;13.90;99.90;;;14.42;45.47;99889.22;5039613;27;130171;-73
2022/05/18 12:07:15;;;;;;;5.07;2.53;;;13.80;99.90;;;15.25;45.15;99887.00;5039726;27;130519;-76
2022/05/18 12:10:21;;;;;;;3.05;1.67;;;14.40;99.90;;;14.53;44.34;99884.22;5039993;27;119044;-70
2022/05/18 12:12:57;;;;;;;3.30;1.83;;;13.70;99.90;;;14.61;46.09;99883.38;5041717;27;114240;-75
2022/05/18 12:15:44;;;;;;;4.63;2.10;;;14.10;99.90;;;14.81;44.32;99876.38;5039548;27;130866;-74
2022/05/18 12:18:21;;;;;;;2.83;1.70;;;14.20;99.90;;;14.88;44.88;99884.84;5039587;27;129519;-75
2022/05/18 12:20:58;;;;;;;3.15;1.98;;;14.40;99.90;;;15.01;43.49;99877.53;5039968;27;118847;-73
2022/05/18 12:23:33;;;;;;;2.67;1.75;;;14.50;99.90;;;15.06;43.03;99865.59;5040249;27;113762;-75
2022/05/18 12:26:03;;;;;;;4.15;1.90;;;14.20;99.90;;;14.99;44.28;99857.94;5039669;27;130391;-76
2022/05/18 12:28:32;;;;;;;3.97;1.60;;;14.40;99.90;;;15.15;44.20;99873.75;5041336;27;129414;-72
2022/05/18 12:31:01;;;;;;;2.75;1.50;;;14.60;99.90;;;15.01;44.71;99866.59;5039943;27;119014;-78
2022/05/18 12:33:35;;;;;;;5.10;2.15;;;14.60;99.90;;;15.46;41.07;99871.41;5040038;27;114029;-72
2022/05/18 12:36:15;;;;;;;3.13;1.80;;;14.80;99.90;;;15.39;42.52;99853.94;5041551;27;129452;-76
2022/05/18 12:38:56;;;;;;;6.47;2.13;;;14.70;99.90;;;15.42;43.57;99864.97;5039269;27;130780;-73
2022/05/18 12:41:31;;;;;;;4.75;2.53;;;14.70;99.90;;;15.33;43.50;99858.78;5039872;27;119147;-72
2022/05/18 12:44:09;;;;;;;8.35;3.55;;;14.70;99.90;;;15.84;42.97;99853.19;5040725;27;114186;-75
2022/05/18 12:46:44;;;;;;;5.72;2.45;;;15.00;99.90;;;15.43;43.50;99855.66;5042485;27;128975;-74
2022/05/18 12:49:25;;;;;;;3.97;2.00;;;14.50;99.90;;;15.96;41.83;99844.22;5040037;27;130215;-75
2022/05/18 12:52:02;;;;;;;3.85;1.83;;;14.90;99.90;;;15.92;41.36;99854.25;5042951;27;117602;-75
2022/05/18 12:54:42;;;;;;;4.18;2.17;;;14.70;99.90;;;15.87;43.08;99840.78;5041849;27;114011;-73
2022/05/18 12:57:29;;;;;;;5.13;2.40;;;14.90;99.90;;;15.36;43.05;99855.38;5039976;27;130526;-72